Time;durP1;ratioP1;P1;durP2;ratioP2;P2;SDS_P1;SDS_P2;PMS_P1;PMS_P2;Temp;Humidity;BMP_temperature;BMP_pressure;BME280_temperature;BME280_humidity;BME280_pressure;Samples;Min_cycle;Max_cycle;Signal;HPM_P1;HPM_P2
2022/03/06 00:00:10;;;;;;;14.03;10.30;;;5.60;60.10;;;;;;6054491;23;20520;-85
2022/03/06 00:02:43;;;;;;;16.03;11.60;;;5.70;60.30;;;;;;6051722;23;20609;-86
2022/03/06 00:05:15;;;;;;;17.40;11.43;;;5.60;60.70;;;;;;6051048;23;20420;-86
2022/03/06 00:07:45;;;;;;;14.67;10.17;;;5.60;61.00;;;;;;6076306;23;20432;-85
2022/03/06 00:10:15;;;;;;;14.17;10.80;;;5.60;61.50;;;;;;6076778;23;20728;-84
2022/03/06 00:12:44;;;;;;;14.17;9.90;;;5.50;61.50;;;;;;6049807;23;20452;-84
2022/03/06 00:15:11;;;;;;;17.13;11.73;;;5.60;62.00;;;;;;6077973;23;20445;-85
2022/03/06 00:17:44;;;;;;;16.93;11.57;;;5.60;61.50;;;;;;6073382;23;20489;-83
2022/03/06 00:20:31;;;;;;;17.03;11.63;;;5.60;61.50;;;;;;6032617;23;20568;-84
2022/03/06 00:23:26;;;;;;;16.90;10.53;;;5.60;61.90;;;;;;6052708;23;20492;-86
2022/03/06 00:26:07;;;;;;;20.27;11.70;;;5.40;61.70;;;;;;6059497;23;20480;-85
2022/03/06 00:28:34;;;;;;;15.77;11.90;;;5.50;62.60;;;;;;6080469;23;20760;-85
2022/03/06 00:31:07;;;;;;;17.00;11.23;;;5.50;63.00;;;;;;6075078;23;20410;-87
2022/03/06 00:33:36;;;;;;;13.00;10.03;;;5.40;63.60;;;;;;6076677;23;20440;-84
2022/03/06 00:36:10;;;;;;;18.20;10.63;;;5.40;64.40;;;;;;6078561;23;20404;-84
2022/03/06 00:38:40;;;;;;;16.80;12.10;;;5.40;64.10;;;;;;6077952;23;20409;-85
2022/03/06 00:41:09;;;;;;;17.77;11.40;;;5.40;63.80;;;;;;6090120;23;20393;-87
2022/03/06 00:43:56;;;;;;;15.63;10.87;;;5.40;63.30;;;;;;6068015;23;20417;-87
2022/03/06 00:46:31;;;;;;;13.33;10.43;;;5.30;62.80;;;;;;6093186;23;20393;-87
2022/03/06 00:49:23;;;;;;;15.10;10.57;;;5.30;62.90;;;;;;6077003;23;20976;-84
2022/03/06 00:51:57;;;;;;;14.90;10.63;;;5.30;63.30;;;;;;6072289;23;20409;-85
2022/03/06 00:54:25;;;;;;;15.20;10.90;;;5.30;63.40;;;;;;6077370;23;20496;-85
2022/03/06 00:57:06;;;;;;;16.40;10.50;;;5.30;63.80;;;;;;6074116;23;20436;-87
2022/03/06 00:59:41;;;;;;;14.23;11.93;;;5.30;64.10;;;;;;6072052;23;20428;-85
2022/03/06 01:02:53;;;;;;;12.47;11.10;;;5.30;64.60;;;;;;6032186;23;21250;-86
2022/03/06 01:06:00;;;;;;;14.90;9.70;;;5.30;64.80;;;;;;6052462;23;20441;-85
2022/03/06 01:09:34;;;;;;;13.97;10.03;;;5.20;65.10;;;;;;6049364;23;20397;-87
2022/03/06 01:12:50;;;;;;;14.40;10.40;;;5.10;65.40;;;;;;6074676;23;20524;-84
2022/03/06 01:20:02;;;;;;;14.20;9.77;;;5.20;65.80;;;;;;6046444;23;20420;-85
2022/03/06 01:23:13;;;;;;;13.20;10.17;;;5.20;64.40;;;;;;6043116;23;20442;-85
2022/03/06 01:30:17;;;;;;;17.53;12.10;;;5.10;63.80;;;;;;5954050;24;20397;-85
2022/03/06 01:34:19;;;;;;;;;;;;;;;;;;;;;
2022/03/06 01:37:34;;;;;;;14.87;10.80;;;4.90;63.80;;;;;;5822400;24;20421;-85
2022/03/06 01:48:37;;;;;;;14.07;10.00;;;4.70;65.40;;;;;;5821608;24;20413;-83
2022/03/06 01:52:01;;;;;;;14.80;10.90;;;4.70;66.60;;;;;;5825167;24;20448;-85
2022/03/06 01:58:49;;;;;;;;;;;;;;;;;;;;;
2022/03/06 02:02:07;;;;;;;16.20;11.00;;;4.70;67.40;;;;;;5820982;24;20414;-85
2022/03/06 02:05:44;;;;;;;17.27;10.60;;;4.60;67.80;;;;;;5811703;24;20469;-86
2022/03/06 02:12:36;;;;;;;;;;;;;;;;;;;;;
2022/03/06 02:15:48;;;;;;;13.30;10.63;;;4.60;67.60;;;;;;6084005;23;20500;-85
2022/03/06 02:18:49;;;;;;;13.20;10.73;;;4.70;68.00;;;;;;6075291;23;20401;-86
2022/03/06 02:22:25;;;;;;;;;;;;;;;;;;;;;
2022/03/06 02:26:02;;;;;;;;;;;;;;;;;;;;;
2022/03/06 02:33:04;;;;;;;17.13;10.63;;;4.70;68.90;;;;;;5965793;24;20463;-85
2022/03/06 02:36:57;;;;;;;;;;;;;;;;;;;;;
2022/03/06 02:40:16;;;;;;;15.63;10.73;;;4.80;69.20;;;;;;5908701;24;20418;-84
2022/03/06 02:43:07;;;;;;;12.93;10.63;;;4.70;70.00;;;;;;5886887;24;20466;-86
2022/03/06 02:53:38;;;;;;;15.10;9.93;;;4.80;67.50;;;;;;5870802;24;20451;-85
2022/03/06 02:56:31;;;;;;;14.80;11.13;;;4.70;67.50;;;;;;5906290;24;20424;-84
2022/03/06 02:59:28;;;;;;;16.37;11.73;;;4.70;68.20;;;;;;5903458;24;20472;-86
2022/03/06 03:02:12;;;;;;;15.47;11.03;;;4.50;68.50;;;;;;5885245;24;20418;-85
2022/03/06 03:05:29;;;;;;;15.83;11.33;;;4.50;69.40;;;;;;5889523;23;20411;-85
2022/03/06 03:09:05;;;;;;;18.60;11.50;;;4.50;70.20;;;;;;6018388;23;20475;-84
2022/03/06 03:12:31;;;;;;;16.47;11.07;;;4.50;70.40;;;;;;6066403;23;20482;-84
2022/03/06 03:15:28;;;;;;;15.70;11.17;;;4.40;70.90;;;;;;6038361;23;20463;-84
2022/03/06 03:18:14;;;;;;;16.00;11.47;;;4.40;71.60;;;;;;6073687;23;20429;-85
2022/03/06 03:21:15;;;;;;;13.80;10.47;;;4.40;72.20;;;;;;6054201;23;20913;-83
2022/03/06 03:24:49;;;;;;;16.80;11.60;;;4.50;71.70;;;;;;6056371;23;20441;-84
2022/03/06 03:27:49;;;;;;;15.07;10.70;;;4.40;71.30;;;;;;5995913;23;20412;-84
2022/03/06 03:31:10;;;;;;;16.57;10.63;;;4.20;71.60;;;;;;6035359;23;20428;-84
2022/03/06 03:34:12;;;;;;;16.73;11.00;;;4.20;72.60;;;;;;6068497;23;20452;-85
2022/03/06 03:37:24;;;;;;;15.07;10.93;;;4.20;73.40;;;;;;5981821;24;20451;-83
2022/03/06 03:40:24;;;;;;;14.90;10.67;;;4.20;74.10;;;;;;5962692;24;20411;-82
2022/03/06 03:43:30;;;;;;;14.20;10.67;;;4.30;74.50;;;;;;5974170;24;20432;-83
2022/03/06 03:53:00;;;;;;;15.90;11.03;;;4.50;73.80;;;;;;5973148;24;20440;-84
2022/03/06 03:56:04;;;;;;;16.23;11.57;;;4.50;73.80;;;;;;5966370;24;20504;-86
2022/03/06 03:59:34;;;;;;;14.30;11.20;;;4.70;74.10;;;;;;5861143;24;20419;-86
2022/03/06 04:06:05;;;;;;;14.40;10.53;;;4.70;74.50;;;;;;5825306;24;20397;-85
2022/03/06 04:09:44;;;;;;;;;;;;;;;;;;;;;
2022/03/06 04:12:59;;;;;;;18.13;11.23;;;4.70;74.90;;;;;;5816541;23;20461;-84
2022/03/06 04:20:26;;;;;;;17.80;10.93;;;4.80;74.80;;;;;;6134372;23;20419;-84
2022/03/06 04:23:34;;;;;;;16.80;11.50;;;4.70;74.00;;;;;;6044229;23;20433;-83
2022/03/06 04:27:05;;;;;;;13.00;11.00;;;4.70;74.20;;;;;;6010520;23;20395;-85
2022/03/06 04:34:14;;;;;;;14.80;11.73;;;4.70;75.60;;;;;;6041281;23;20510;-85
2022/03/06 04:37:27;;;;;;;16.17;11.23;;;4.50;76.80;;;;;;5946344;24;20401;-84
2022/03/06 04:44:28;;;;;;;15.00;11.57;;;4.50;76.70;;;;;;5957886;24;20422;-86
2022/03/06 04:47:35;;;;;;;19.83;11.80;;;4.40;77.00;;;;;;5952856;24;20406;-87
2022/03/06 04:50:41;;;;;;;;;;;;;;;;;;;;;
2022/03/06 04:53:48;;;;;;;;;;;;;;;;;;;;;
2022/03/06 04:57:14;;;;;;;15.20;9.90;;;4.60;75.30;;;;;;5944263;24;20404;-86
2022/03/06 05:00:19;;;;;;;16.30;10.67;;;4.40;75.10;;;;;;5982562;23;20427;-85
2022/03/06 05:04:00;;;;;;;14.93;10.80;;;4.40;75.40;;;;;;6045044;23;20434;-84
2022/03/06 05:07:16;;;;;;;15.83;10.63;;;4.40;75.20;;;;;;5899825;24;20391;-83
2022/03/06 05:10:49;;;;;;;18.00;11.60;;;4.30;76.40;;;;;;5869519;24;20438;-86
2022/03/06 05:25:02;;;;;;;21.50;12.80;;;4.50;80.70;;;;;;6056033;23;20417;-85
2022/03/06 05:27:51;;;;;;;17.27;12.37;;;4.50;83.80;;;;;;6106764;23;20385;-85
2022/03/06 05:30:56;;;;;;;;;;;;;;;;;;;;;
2022/03/06 05:37:29;;;;;;;16.30;11.60;;;4.20;88.90;;;;;;5985978;23;20416;-86
2022/03/06 05:40:32;;;;;;;16.57;11.80;;;4.20;90.10;;;;;;6004816;23;20400;-87
2022/03/06 05:43:45;;;;;;;14.03;10.97;;;4.10;90.50;;;;;;5987567;23;20435;-86
2022/03/06 05:46:55;;;;;;;17.50;12.27;;;4.20;90.80;;;;;;6003823;23;20464;-85
2022/03/06 05:50:08;;;;;;;16.97;11.40;;;4.30;90.30;;;;;;5978560;24;20403;-85
2022/03/06 05:53:22;;;;;;;19.47;12.13;;;4.20;90.70;;;;;;5906167;24;20439;-86
2022/03/06 05:56:42;;;;;;;18.07;12.03;;;4.40;90.50;;;;;;5905449;24;20442;-85
2022/03/06 05:59:48;;;;;;;15.37;11.90;;;4.30;90.40;;;;;;5904822;24;20440;-84
2022/03/06 06:02:50;;;;;;;19.40;11.97;;;4.20;90.40;;;;;;5874546;24;20432;-85
2022/03/06 06:09:43;;;;;;;19.13;13.43;;;4.00;91.00;;;;;;5887524;24;20513;-85
2022/03/06 06:16:40;;;;;;;14.43;11.10;;;4.10;91.50;;;;;;6008356;23;20483;-86
2022/03/06 06:20:12;;;;;;;;;;;;;;;;;;;;;
2022/03/06 06:28:31;;;;;;;17.80;12.70;;;4.00;91.40;;;;;;6143983;23;20466;-84
2022/03/06 06:31:41;;;;;;;17.53;12.10;;;4.30;90.70;;;;;;6163824;23;20421;-86
2022/03/06 06:34:46;;;;;;;20.33;12.60;;;4.30;90.20;;;;;;6121459;23;20529;-86
2022/03/06 06:37:48;;;;;;;15.00;11.30;;;4.00;90.10;;;;;;6133071;23;20443;-88
2022/03/06 06:40:44;;;;;;;17.93;13.10;;;4.20;89.20;;;;;;6128473;23;20410;-87
2022/03/06 06:43:59;;;;;;;16.07;12.50;;;4.20;89.70;;;;;;6123929;23;20436;-86
2022/03/06 06:46:57;;;;;;;16.10;11.20;;;4.10;90.20;;;;;;6073417;23;20416;-87
2022/03/06 06:50:17;;;;;;;18.73;13.10;;;4.30;89.70;;;;;;6112908;23;20495;-85
2022/03/06 06:53:23;;;;;;;15.97;12.20;;;4.10;89.50;;;;;;6113245;23;20439;-86
2022/03/06 06:56:12;;;;;;;16.43;12.90;;;4.20;88.10;;;;;;6111206;23;20487;-87
2022/03/06 06:59:49;;;;;;;;;;;;;;;;;;;;;
2022/03/06 07:02:46;;;;;;;15.87;11.20;;;4.00;86.80;;;;;;6129927;23;20982;-85
2022/03/06 07:05:39;;;;;;;17.00;11.33;;;4.30;85.30;;;;;;6107055;23;20737;-85
2022/03/06 07:08:47;;;;;;;14.77;12.00;;;4.20;84.80;;;;;;6104753;23;20459;-85
2022/03/06 07:11:47;;;;;;;14.23;11.90;;;4.40;83.50;;;;;;6110211;23;20403;-86
2022/03/06 07:14:49;;;;;;;19.67;12.33;;;4.30;83.50;;;;;;6108633;23;20561;-85
2022/03/06 07:17:38;;;;;;;17.47;11.93;;;4.50;83.30;;;;;;6109391;23;20422;-85
2022/03/06 07:20:14;;;;;;;16.13;12.30;;;4.70;82.00;;;;;;6109534;23;20467;-81
2022/03/06 07:22:51;;;;;;;17.10;13.27;;;4.80;80.90;;;;;;6130128;23;20428;-85
2022/03/06 07:25:21;;;;;;;19.60;13.40;;;4.80;81.50;;;;;;6108626;23;20431;-86
2022/03/06 07:27:53;;;;;;;15.67;11.27;;;4.80;81.30;;;;;;6117407;23;20436;-86
2022/03/06 07:30:22;;;;;;;17.57;11.87;;;4.70;83.50;;;;;;6116053;23;20799;-87
2022/03/06 07:33:07;;;;;;;16.83;12.63;;;4.70;83.40;;;;;;6114035;23;20491;-85
2022/03/06 07:35:47;;;;;;;17.23;11.23;;;4.50;82.10;;;;;;6109970;23;20463;-85
2022/03/06 07:38:27;;;;;;;16.30;11.63;;;4.70;80.30;;;;;;6107870;23;20449;-84
2022/03/06 07:41:17;;;;;;;18.40;12.77;;;4.50;79.70;;;;;;6135475;23;20503;-85
2022/03/06 07:43:44;;;;;;;20.57;12.73;;;4.70;81.00;;;;;;6134502;23;20510;-87
2022/03/06 07:46:22;;;;;;;17.53;11.57;;;4.80;81.00;;;;;;6107426;23;20887;-86
2022/03/06 07:48:49;;;;;;;17.00;12.23;;;4.90;81.80;;;;;;6107412;23;20418;-86
2022/03/06 07:51:21;;;;;;;13.57;10.47;;;4.80;80.60;;;;;;6134220;23;20435;-84
2022/03/06 07:53:58;;;;;;;14.77;12.03;;;4.70;79.60;;;;;;6138540;23;21136;-87
2022/03/06 07:56:35;;;;;;;12.57;10.00;;;4.70;79.80;;;;;;6141303;23;20420;-86
2022/03/06 07:59:21;;;;;;;13.40;10.53;;;4.70;80.10;;;;;;6141963;23;20468;-86
2022/03/06 08:02:01;;;;;;;17.50;12.20;;;5.00;79.50;;;;;;6144314;23;20427;-84
2022/03/06 08:05:07;;;;;;;16.77;12.10;;;5.10;78.70;;;;;;6110636;23;20447;-85
2022/03/06 08:07:41;;;;;;;16.43;10.97;;;5.00;77.70;;;;;;6135048;23;20496;-85
2022/03/06 08:10:10;;;;;;;16.70;12.13;;;4.90;78.00;;;;;;6134138;23;20470;-85
2022/03/06 08:12:48;;;;;;;14.47;11.07;;;4.90;78.20;;;;;;6111629;23;20435;-85
2022/03/06 08:15:22;;;;;;;18.43;11.50;;;5.20;77.70;;;;;;6110348;23;20450;-85
2022/03/06 08:17:52;;;;;;;16.80;12.13;;;5.40;76.70;;;;;;6109708;23;20412;-86
2022/03/06 08:20:31;;;;;;;14.63;12.00;;;5.60;76.40;;;;;;6134549;23;20418;-85
2022/03/06 08:23:15;;;;;;;16.70;11.47;;;5.60;76.20;;;;;;6109716;23;20432;-85
2022/03/06 08:26:22;;;;;;;18.80;11.83;;;5.60;76.10;;;;;;6071834;23;20433;-86
2022/03/06 08:29:03;;;;;;;17.87;12.20;;;5.50;76.50;;;;;;6106587;23;20447;-87
2022/03/06 08:32:09;;;;;;;17.47;11.90;;;5.40;76.40;;;;;;6111362;23;20427;-85
2022/03/06 08:35:04;;;;;;;17.23;13.13;;;6.00;78.30;;;;;;6130877;23;20447;-86
2022/03/06 08:38:06;;;;;;;17.17;12.50;;;6.40;76.90;;;;;;6132884;23;20404;-85
2022/03/06 08:41:06;;;;;;;14.20;12.07;;;6.70;76.00;;;;;;6016352;23;20404;-86
2022/03/06 08:44:26;;;;;;;16.10;12.20;;;6.80;75.20;;;;;;5996991;23;20402;-86
2022/03/06 08:47:20;;;;;;;18.03;13.07;;;6.80;74.70;;;;;;6008508;23;20515;-86
2022/03/06 08:50:03;;;;;;;17.80;13.63;;;6.90;73.50;;;;;;5991377;23;20426;-86
2022/03/06 08:53:10;;;;;;;19.37;15.03;;;6.90;73.90;;;;;;6022769;23;20535;-86
2022/03/06 08:55:56;;;;;;;17.93;13.80;;;7.20;74.70;;;;;;6100640;23;20439;-88
2022/03/06 08:59:19;;;;;;;19.80;14.27;;;7.30;75.10;;;;;;6129742;23;20402;-88
2022/03/06 09:02:12;;;;;;;19.27;15.80;;;7.50;73.70;;;;;;6097948;23;20466;-85
2022/03/06 09:04:44;;;;;;;20.97;14.47;;;7.30;73.90;;;;;;6106111;23;20418;-85
2022/03/06 09:07:31;;;;;;;16.30;13.40;;;6.90;74.20;;;;;;6107274;23;20895;-87
2022/03/06 09:10:36;;;;;;;16.17;14.00;;;6.70;75.50;;;;;;6107165;23;20432;-87
2022/03/06 09:13:54;;;;;;;21.33;16.60;;;6.80;76.40;;;;;;6116362;23;20444;-85
2022/03/06 09:16:55;;;;;;;20.17;14.80;;;7.40;74.80;;;;;;6129743;23;20466;-86
2022/03/06 09:20:04;;;;;;;;;;;;;;;;;;;;;
2022/03/06 09:22:59;;;;;;;19.53;15.37;;;8.20;70.90;;;;;;6130855;23;20416;-86
2022/03/06 09:26:07;;;;;;;16.70;14.07;;;7.80;70.70;;;;;;6000417;23;20459;-87
2022/03/06 09:29:32;;;;;;;19.53;14.97;;;7.50;71.30;;;;;;6017972;23;20411;-87
2022/03/06 09:32:54;;;;;;;18.67;14.80;;;7.40;70.30;;;;;;6017388;23;20456;-85
2022/03/06 09:35:48;;;;;;;21.00;15.03;;;7.50;69.80;;;;;;5997654;23;20535;-86
2022/03/06 09:38:31;;;;;;;19.70;14.67;;;8.60;69.70;;;;;;5994566;23;20422;-84
2022/03/06 09:41:25;;;;;;;18.20;14.40;;;8.70;67.50;;;;;;5994333;23;20475;-86
2022/03/06 09:45:04;;;;;;;21.20;14.70;;;9.00;66.10;;;;;;6015390;23;20491;-85
2022/03/06 09:48:30;;;;;;;18.60;14.10;;;9.10;64.90;;;;;;6018044;23;20391;-85
2022/03/06 09:55:28;;;;;;;;;;;;;;;;;;;;;
2022/03/06 09:58:24;;;;;;;16.93;13.23;;;9.20;63.50;;;;;;6135013;23;20415;-86
2022/03/06 10:02:06;;;;;;;16.83;14.33;;;9.40;63.80;;;;;;6111219;23;20422;-87
2022/03/06 10:11:47;;;;;;;16.20;12.43;;;9.70;59.50;;;;;;6083412;23;20413;-86
2022/03/06 10:15:17;;;;;;;12.80;11.43;;;10.20;56.80;;;;;;5998051;23;20413;-87
2022/03/06 10:18:42;;;;;;;16.00;11.90;;;10.70;53.90;;;;;;6029602;23;20402;-85
2022/03/06 10:21:33;;;;;;;15.23;11.80;;;11.20;53.20;;;;;;6034988;23;20426;-85
2022/03/06 10:27:59;;;;;;;15.07;11.67;;;10.10;52.70;;;;;;6042733;23;20489;-87
2022/03/06 10:31:11;;;;;;;14.63;12.37;;;9.70;54.50;;;;;;6030546;23;20422;-87
2022/03/06 10:34:33;;;;;;;15.10;11.70;;;9.30;55.10;;;;;;6047142;23;20405;-86
2022/03/06 10:37:13;;;;;;;14.57;13.07;;;9.50;55.50;;;;;;6024735;23;20415;-87
2022/03/06 10:40:07;;;;;;;14.83;12.80;;;9.90;54.50;;;;;;6033594;23;20434;-88
2022/03/06 10:43:27;;;;;;;14.07;11.47;;;10.50;53.10;;;;;;6040857;23;20438;-88
2022/03/06 10:46:25;;;;;;;15.70;12.40;;;10.60;51.30;;;;;;6029920;23;20415;-85
2022/03/06 10:49:22;;;;;;;15.30;12.87;;;10.10;51.30;;;;;;5996962;23;20419;-86
2022/03/06 10:52:44;;;;;;;16.43;13.37;;;9.80;53.70;;;;;;6022980;23;20390;-85
2022/03/06 10:55:47;;;;;;;17.50;12.93;;;10.10;52.80;;;;;;6026503;23;20473;-85
2022/03/06 10:58:43;;;;;;;13.70;11.47;;;9.80;54.10;;;;;;6027957;23;20781;-86
2022/03/06 11:01:33;;;;;;;13.57;10.90;;;10.30;51.70;;;;;;6048059;23;20459;-85
2022/03/06 11:04:37;;;;;;;13.40;11.50;;;10.70;49.50;;;;;;6026996;23;20462;-85
2022/03/06 11:07:53;;;;;;;13.77;11.33;;;10.50;49.30;;;;;;6022568;23;20519;-83
2022/03/06 11:10:35;;;;;;;14.60;11.00;;;10.60;48.50;;;;;;6022715;23;20456;-86
2022/03/06 11:13:21;;;;;;;14.40;12.10;;;10.30;48.40;;;;;;6023389;23;20463;-85
2022/03/06 11:20:03;;;;;;;15.07;13.10;;;10.20;49.50;;;;;;6010458;23;20410;-86
2022/03/06 11:23:38;;;;;;;14.37;11.73;;;10.20;50.10;;;;;;6017456;23;20428;-86
2022/03/06 11:26:16;;;;;;;15.97;12.07;;;9.70;51.80;;;;;;6016724;23;20422;-86
2022/03/06 11:29:40;;;;;;;13.17;10.83;;;9.50;52.10;;;;;;6016103;23;20395;-86
2022/03/06 11:40:21;;;;;;;16.73;11.87;;;9.40;52.70;;;;;;6018239;23;20375;-85
2022/03/06 11:43:38;;;;;;;15.13;12.47;;;9.30;52.70;;;;;;6037319;23;20423;-84
2022/03/06 11:47:00;;;;;;;14.97;11.90;;;9.40;52.70;;;;;;6014198;23;20417;-85
2022/03/06 11:50:01;;;;;;;17.93;12.20;;;9.40;53.30;;;;;;6015250;23;20418;-85
2022/03/06 11:52:56;;;;;;;16.80;13.27;;;9.40;53.80;;;;;;6014695;23;20427;-84
2022/03/06 11:55:38;;;;;;;14.57;12.27;;;9.40;54.10;;;;;;6016984;23;20506;-84
2022/03/06 11:58:57;;;;;;;15.57;12.93;;;9.50;55.10;;;;;;6018068;23;20420;-86
2022/03/06 12:01:36;;;;;;;20.57;13.30;;;9.40;54.70;;;;;;6022215;23;20454;-87
2022/03/06 12:07:53;;;;;;;17.90;13.50;;;9.70;55.50;;;;;;6052523;23;20823;-86
2022/03/06 12:18:20;;;;;;;16.97;14.07;;;9.70;55.30;;;;;;5975725;23;20427;-87
2022/03/06 12:21:51;;;;;;;17.60;12.80;;;9.50;55.60;;;;;;6005822;23;20418;-88
2022/03/06 12:25:05;;;;;;;19.07;15.23;;;9.20;54.90;;;;;;5995058;23;20415;-88
2022/03/06 12:27:47;;;;;;;18.47;13.93;;;9.00;55.60;;;;;;6019580;23;20475;-86
2022/03/06 12:30:49;;;;;;;15.23;12.97;;;9.10;55.80;;;;;;6017937;23;20482;-85
2022/03/06 12:33:50;;;;;;;17.67;13.97;;;9.10;56.00;;;;;;6016248;23;20439;-85
2022/03/06 12:37:33;;;;;;;;;;;;;;;;;;;;;
2022/03/06 12:40:21;;;;;;;16.20;12.67;;;9.50;55.30;;;;;;6035927;23;20399;-88
2022/03/06 12:43:25;;;;;;;16.90;13.30;;;9.70;53.70;;;;;;6036118;23;20707;-86
2022/03/06 12:46:13;;;;;;;16.10;12.93;;;10.10;51.00;;;;;;6032687;23;20470;-88
2022/03/06 12:49:23;;;;;;;16.60;12.60;;;10.20;50.70;;;;;;6019285;23;20440;-85
2022/03/06 12:52:25;;;;;;;18.07;12.33;;;10.10;50.50;;;;;;6018944;23;20415;-86
2022/03/06 12:58:12;;;;;;;15.33;11.80;;;10.20;49.60;;;;;;6018143;23;20903;-87
2022/03/06 13:00:49;;;;;;;14.97;10.67;;;10.60;48.70;;;;;;6020711;23;20419;-86
2022/03/06 13:03:37;;;;;;;17.07;12.57;;;11.20;48.20;;;;;;6017189;23;20431;-85
2022/03/06 13:06:42;;;;;;;13.80;11.77;;;11.70;47.20;;;;;;6022395;23;20412;-84
2022/03/06 13:09:56;;;;;;;16.00;12.07;;;11.90;45.20;;;;;;6016388;23;20461;-87
2022/03/06 13:12:41;;;;;;;13.50;12.10;;;11.70;45.00;;;;;;6016961;23;20558;-86
2022/03/06 13:15:12;;;;;;;16.83;12.50;;;11.90;44.50;;;;;;6019561;23;20411;-85
2022/03/06 13:18:21;;;;;;;14.90;12.47;;;12.00;44.00;;;;;;6044970;23;20407;-84
2022/03/06 13:21:27;;;;;;;14.77;12.60;;;12.20;43.50;;;;;;5960209;24;20606;-85
2022/03/06 13:29:19;;;;;;;13.30;11.97;;;12.30;42.30;;;;;;5906808;24;20423;-86
2022/03/06 13:40:25;;;;;;;13.93;12.53;;;11.60;42.70;;;;;;6052440;23;20423;-85
2022/03/06 13:43:27;;;;;;;11.30;10.03;;;12.50;43.20;;;;;;6051993;23;20434;-88
2022/03/06 13:50:16;;;;;;;11.70;10.47;;;12.80;40.50;;;;;;6053276;23;20740;-86
2022/03/06 13:53:30;;;;;;;11.40;10.20;;;12.70;40.70;;;;;;5993406;23;20488;-85
2022/03/06 13:56:25;;;;;;;13.60;10.60;;;12.40;40.90;;;;;;6023731;23;20419;-85
2022/03/06 13:59:58;;;;;;;12.77;11.43;;;12.20;42.00;;;;;;6025930;23;20406;-86
2022/03/06 14:10:48;;;;;;;11.87;9.97;;;11.90;42.70;;;;;;6047072;23;20403;-85
2022/03/06 14:13:54;;;;;;;13.23;10.37;;;11.30;44.00;;;;;;6028657;23;20512;-86
2022/03/06 14:17:36;;;;;;;10.83;9.47;;;11.00;44.10;;;;;;6040222;23;20411;-86
2022/03/06 14:21:00;;;;;;;11.07;9.90;;;11.00;44.00;;;;;;5912247;23;21100;-85
2022/03/06 14:23:48;;;;;;;11.57;10.37;;;10.80;44.20;;;;;;6088382;23;20416;-85
2022/03/06 14:26:55;;;;;;;11.40;10.30;;;10.60;45.80;;;;;;6128532;23;20464;-84
2022/03/06 14:30:11;;;;;;;10.10;9.07;;;10.40;45.60;;;;;;6010222;23;20494;-84
2022/03/06 14:33:37;;;;;;;10.93;9.83;;;10.40;45.30;;;;;;6041051;23;20518;-82
2022/03/06 14:36:40;;;;;;;11.47;9.10;;;10.10;45.60;;;;;;6079329;23;20467;-87
2022/03/06 14:40:02;;;;;;;11.37;9.27;;;10.40;46.10;;;;;;6085147;23;20416;-86
2022/03/06 14:55:56;;;;;;;11.00;8.93;;;10.40;44.70;;;;;;6097268;23;20451;-84
2022/03/06 14:58:53;;;;;;;13.80;11.03;;;10.30;44.40;;;;;;6078630;23;20423;-85
2022/03/06 15:13:17;;;;;;;13.93;10.43;;;9.90;46.70;;;;;;6148479;23;20473;-86
2022/03/06 15:16:09;;;;;;;11.30;10.17;;;9.90;47.00;;;;;;6099528;23;20416;-86
2022/03/06 15:19:38;;;;;;;;;;;;;;;;;;;;;
2022/03/06 15:22:23;;;;;;;13.37;11.10;;;9.80;48.40;;;;;;6133614;23;20459;-86
2022/03/06 15:24:53;;;;;;;13.33;11.63;;;9.80;49.00;;;;;;6106498;23;20400;-85
2022/03/06 15:27:51;;;;;;;15.80;12.20;;;9.80;48.90;;;;;;6128728;23;20475;-86
2022/03/06 15:31:11;;;;;;;11.87;10.67;;;9.70;48.40;;;;;;6044278;23;20439;-86
2022/03/06 15:34:15;;;;;;;14.20;11.77;;;9.60;49.20;;;;;;6001204;23;20753;-85
2022/03/06 15:36:59;;;;;;;13.00;11.40;;;9.70;48.20;;;;;;6131546;23;20430;-85
2022/03/06 15:40:16;;;;;;;13.10;11.20;;;9.50;48.60;;;;;;6109260;23;20412;-85
2022/03/06 15:42:59;;;;;;;12.47;11.20;;;9.60;48.20;;;;;;6109005;23;20471;-84
2022/03/06 15:45:42;;;;;;;15.60;11.77;;;9.60;47.40;;;;;;6130340;23;20455;-86
2022/03/06 15:48:29;;;;;;;13.67;12.27;;;9.60;47.90;;;;;;6010978;23;21072;-85
2022/03/06 15:51:34;;;;;;;12.23;10.97;;;9.60;48.50;;;;;;5972131;23;20432;-86
2022/03/06 15:54:18;;;;;;;13.60;11.50;;;9.60;49.00;;;;;;6009967;23;20506;-85
2022/03/06 15:57:07;;;;;;;13.50;11.53;;;9.50;48.30;;;;;;6010962;23;20395;-85
2022/03/06 16:03:07;;;;;;;14.13;10.63;;;9.50;48.60;;;;;;6009228;23;20418;-85
2022/03/06 16:06:17;;;;;;;13.03;11.73;;;9.50;48.70;;;;;;5993722;23;20415;-84
2022/03/06 16:09:06;;;;;;;11.00;10.10;;;9.70;49.20;;;;;;6023640;23;20410;-87
2022/03/06 16:11:54;;;;;;;12.10;10.90;;;9.60;49.10;;;;;;6034262;23;20475;-86
2022/03/06 16:14:39;;;;;;;12.30;11.00;;;9.80;47.80;;;;;;6113013;23;20404;-85
2022/03/06 16:17:44;;;;;;;12.50;10.90;;;9.70;47.90;;;;;;6147510;23;20475;-85
2022/03/06 16:20:18;;;;;;;11.90;10.73;;;9.70;48.30;;;;;;6123905;23;20416;-85
2022/03/06 16:22:53;;;;;;;10.97;9.83;;;9.60;48.60;;;;;;6124106;23;20399;-87
2022/03/06 16:25:46;;;;;;;11.07;9.73;;;9.30;49.10;;;;;;6124667;23;20506;-86
2022/03/06 16:28:28;;;;;;;13.50;9.83;;;9.40;49.60;;;;;;6127084;23;20400;-86
2022/03/06 16:31:12;;;;;;;11.43;10.30;;;9.40;48.90;;;;;;6150693;23;20435;-86
2022/03/06 16:33:44;;;;;;;11.40;10.27;;;9.40;48.80;;;;;;6124073;23;20469;-84
2022/03/06 16:36:27;;;;;;;11.90;10.70;;;9.40;49.10;;;;;;6126408;23;20455;-85
2022/03/06 16:39:32;;;;;;;12.27;10.30;;;9.30;48.80;;;;;;6149212;23;20519;-86
2022/03/06 16:42:23;;;;;;;10.20;9.20;;;9.10;48.60;;;;;;6034111;23;20456;-86
2022/03/06 16:45:06;;;;;;;11.40;10.30;;;8.90;48.40;;;;;;6148711;23;20403;-85
2022/03/06 16:47:48;;;;;;;12.57;10.40;;;8.60;49.20;;;;;;6124785;23;20479;-84
2022/03/06 16:50:18;;;;;;;10.83;9.73;;;8.60;50.10;;;;;;6142938;23;20418;-85
2022/03/06 16:52:52;;;;;;;11.17;8.97;;;8.40;50.20;;;;;;6109671;23;20412;-85
2022/03/06 16:55:33;;;;;;;9.87;8.90;;;8.40;50.60;;;;;;6106317;23;20470;-87
2022/03/06 16:58:08;;;;;;;11.37;9.03;;;8.30;51.00;;;;;;6087558;23;20520;-87
2022/03/06 17:01:03;;;;;;;10.07;8.67;;;8.10;50.40;;;;;;6104146;23;20463;-85
2022/03/06 17:03:36;;;;;;;12.47;9.97;;;8.10;50.50;;;;;;6112718;23;20401;-86
2022/03/06 17:06:25;;;;;;;10.90;9.80;;;8.10;51.00;;;;;;6085899;23;20440;-86
2022/03/06 17:09:05;;;;;;;10.57;9.47;;;8.00;50.60;;;;;;6110404;23;20421;-85
2022/03/06 17:11:39;;;;;;;10.47;8.40;;;8.00;50.90;;;;;;6115355;23;20493;-84
2022/03/06 17:14:16;;;;;;;11.87;9.10;;;7.90;50.90;;;;;;6093089;23;20450;-85
2022/03/06 17:16:45;;;;;;;11.07;9.20;;;7.80;51.00;;;;;;6091398;23;20446;-85
2022/03/06 17:19:17;;;;;;;9.90;8.90;;;7.70;51.10;;;;;;6119994;23;20412;-84
2022/03/06 17:21:48;;;;;;;10.43;9.37;;;7.80;51.90;;;;;;6093932;23;20433;-85
2022/03/06 17:24:18;;;;;;;10.07;9.00;;;7.70;52.00;;;;;;6119279;23;20420;-85
2022/03/06 17:26:51;;;;;;;9.90;9.00;;;7.80;52.30;;;;;;6119082;23;20425;-85
2022/03/06 17:29:38;;;;;;;10.23;9.17;;;7.70;52.40;;;;;;6090845;23;20417;-84
2022/03/06 17:32:11;;;;;;;10.40;9.30;;;7.80;52.80;;;;;;6091257;23;20803;-84
2022/03/06 17:34:45;;;;;;;11.83;9.90;;;7.70;52.40;;;;;;6091677;23;20402;-86
2022/03/06 17:37:29;;;;;;;12.40;9.17;;;7.50;52.70;;;;;;6090378;23;20415;-85
2022/03/06 17:39:58;;;;;;;13.00;8.80;;;7.30;52.80;;;;;;6087025;23;20397;-85
2022/03/06 17:42:40;;;;;;;9.20;8.30;;;7.20;52.70;;;;;;6087521;23;20423;-85
2022/03/06 17:45:25;;;;;;;8.03;7.33;;;7.30;53.20;;;;;;6086237;23;20400;-86
2022/03/06 17:48:22;;;;;;;8.93;8.03;;;7.40;53.30;;;;;;6085796;23;20472;-86
2022/03/06 17:50:52;;;;;;;10.13;8.20;;;7.40;52.70;;;;;;6084339;23;20430;-86
2022/03/06 17:53:29;;;;;;;8.90;7.73;;;7.30;52.80;;;;;;6081050;23;21267;-85
2022/03/06 17:56:13;;;;;;;9.80;8.80;;;7.20;53.00;;;;;;6083359;23;20412;-85
2022/03/06 17:59:01;;;;;;;9.07;8.10;;;7.20;53.40;;;;;;6102652;23;20511;-85
2022/03/06 18:01:32;;;;;;;9.23;8.27;;;7.30;53.10;;;;;;6078840;23;20495;-85
2022/03/06 18:04:08;;;;;;;8.57;7.60;;;7.20;52.80;;;;;;6101398;23;20860;-85
2022/03/06 18:06:45;;;;;;;8.10;7.20;;;7.20;52.90;;;;;;6088850;23;20451;-84
2022/03/06 18:09:23;;;;;;;7.70;6.87;;;7.10;53.00;;;;;;6115108;23;20450;-85
2022/03/06 18:12:16;;;;;;;7.63;6.57;;;7.00;53.40;;;;;;6106129;23;20436;-85
2022/03/06 18:14:55;;;;;;;7.40;6.63;;;6.90;54.00;;;;;;6103202;23;20414;-86
2022/03/06 18:17:42;;;;;;;8.33;7.53;;;7.00;54.10;;;;;;6105010;23;20479;-85
2022/03/06 18:20:21;;;;;;;7.17;6.47;;;6.80;54.00;;;;;;6103189;23;20435;-85
2022/03/06 18:22:50;;;;;;;7.13;6.43;;;6.80;54.20;;;;;;6101207;23;20426;-87
2022/03/06 18:25:31;;;;;;;8.03;6.47;;;6.70;54.20;;;;;;6078573;23;20412;-89
2022/03/06 18:28:01;;;;;;;7.30;6.60;;;6.70;54.50;;;;;;6100123;23;20514;-86